sensor_id;sensor_type;location;lat;lon;timestamp;pressure;altitude;pressure_sealevel;temperature;humidity
58223;BME280;44020;50.890;15.796;2023-07-31T00:00:31;97385.55;;;15.72;98.04
58223;BME280;44020;50.890;15.796;2023-07-31T00:03:19;97388.56;;;15.70;98.09
58223;BME280;44020;50.890;15.796;2023-07-31T00:05:47;97386.95;;;15.68;98.23
58223;BME280;44020;50.890;15.796;2023-07-31T00:08:15;97382.98;;;15.68;98.29
58223;BME280;44020;50.890;15.796;2023-07-31T00:10:43;97384.94;;;15.66;98.44
58223;BME280;44020;50.890;15.796;2023-07-31T00:13:10;97386.88;;;15.65;98.35
58223;BME280;44020;50.890;15.796;2023-07-31T00:15:38;97386.66;;;15.63;98.55
58223;BME280;44020;50.890;15.796;2023-07-31T00:18:06;97389.14;;;15.61;98.68
58223;BME280;44020;50.890;15.796;2023-07-31T00:20:33;97390.34;;;15.60;98.88
58223;BME280;44020;50.890;15.796;2023-07-31T00:23:01;97392.52;;;15.60;98.95
58223;BME280;44020;50.890;15.796;2023-07-31T00:25:28;97384.49;;;15.57;98.94
58223;BME280;44020;50.890;15.796;2023-07-31T00:27:56;97385.16;;;15.54;99.16
58223;BME280;44020;50.890;15.796;2023-07-31T00:30:23;97389.48;;;15.54;99.37
58223;BME280;44020;50.890;15.796;2023-07-31T00:32:52;97384.12;;;15.54;99.40
58223;BME280;44020;50.890;15.796;2023-07-31T00:35:20;97386.75;;;15.51;99.26
58223;BME280;44020;50.890;15.796;2023-07-31T00:37:47;97389.39;;;15.48;99.53
58223;BME280;44020;50.890;15.796;2023-07-31T00:40:15;97385.16;;;15.47;99.63
58223;BME280;44020;50.890;15.796;2023-07-31T00:42:42;97384.16;;;15.46;99.70
58223;BME280;44020;50.890;15.796;2023-07-31T00:45:10;97383.70;;;15.46;99.69
58223;BME280;44020;50.890;15.796;2023-07-31T00:47:37;97382.96;;;15.44;99.61
58223;BME280;44020;50.890;15.796;2023-07-31T00:50:07;97387.82;;;15.41;99.61
58223;BME280;44020;50.890;15.796;2023-07-31T00:52:35;97385.04;;;15.39;99.74
58223;BME280;44020;50.890;15.796;2023-07-31T00:55:04;97383.10;;;15.39;99.73
58223;BME280;44020;50.890;15.796;2023-07-31T00:57:32;97381.14;;;15.35;99.61
58223;BME280;44020;50.890;15.796;2023-07-31T01:00:03;97383.50;;;15.32;99.59
58223;BME280;44020;50.890;15.796;2023-07-31T01:02:31;97378.23;;;15.28;99.58
58223;BME280;44020;50.890;15.796;2023-07-31T01:04:59;97379.54;;;15.25;99.78
58223;BME280;44020;50.890;15.796;2023-07-31T01:07:49;97377.06;;;15.23;99.80
58223;BME280;44020;50.890;15.796;2023-07-31T01:10:22;97378.41;;;15.20;99.86
58223;BME280;44020;50.890;15.796;2023-07-31T01:12:51;97379.52;;;15.17;99.82
58223;BME280;44020;50.890;15.796;2023-07-31T01:15:19;97374.56;;;15.15;99.95
58223;BME280;44020;50.890;15.796;2023-07-31T01:17:47;97376.98;;;15.14;99.98
58223;BME280;44020;50.890;15.796;2023-07-31T01:20:26;97375.05;;;15.12;100.00
58223;BME280;44020;50.890;15.796;2023-07-31T01:26:00;97372.20;;;15.08;100.00
58223;BME280;44020;50.890;15.796;2023-07-31T01:28:56;97370.65;;;15.05;100.00
58223;BME280;44020;50.890;15.796;2023-07-31T01:31:29;97370.71;;;15.03;100.00
58223;BME280;44020;50.890;15.796;2023-07-31T01:34:00;97372.98;;;15.00;100.00
58223;BME280;44020;50.890;15.796;2023-07-31T01:36:30;97367.33;;;14.95;100.00
58223;BME280;44020;50.890;15.796;2023-07-31T01:38:59;97367.33;;;14.95;99.99
58223;BME280;44020;50.890;15.796;2023-07-31T01:41:27;97367.12;;;14.94;99.96
58223;BME280;44020;50.890;15.796;2023-07-31T01:43:55;97365.88;;;14.90;99.90
58223;BME280;44020;50.890;15.796;2023-07-31T01:46:22;97363.33;;;14.86;99.85
58223;BME280;44020;50.890;15.796;2023-07-31T01:48:50;97358.02;;;14.84;99.80
58223;BME280;44020;50.890;15.796;2023-07-31T01:51:18;97359.23;;;14.81;99.83
58223;BME280;44020;50.890;15.796;2023-07-31T01:53:45;97358.50;;;14.74;99.82
58223;BME280;44020;50.890;15.796;2023-07-31T01:56:12;97355.59;;;14.69;99.81
58223;BME280;44020;50.890;15.796;2023-07-31T01:58:40;97358.89;;;14.66;99.91
58223;BME280;44020;50.890;15.796;2023-07-31T02:01:08;97356.89;;;14.65;99.97
58223;BME280;44020;50.890;15.796;2023-07-31T02:03:35;97361.15;;;14.63;100.00
58223;BME280;44020;50.890;15.796;2023-07-31T02:06:02;97360.08;;;14.63;100.00
58223;BME280;44020;50.890;15.796;2023-07-31T02:08:30;97366.58;;;14.63;100.00
58223;BME280;44020;50.890;15.796;2023-07-31T02:10:57;97367.73;;;14.62;100.00
58223;BME280;44020;50.890;15.796;2023-07-31T02:13:25;97370.27;;;14.61;100.00
58223;BME280;44020;50.890;15.796;2023-07-31T02:15:52;97365.48;;;14.59;100.00
58223;BME280;44020;50.890;15.796;2023-07-31T02:18:20;97362.92;;;14.57;100.00
58223;BME280;44020;50.890;15.796;2023-07-31T02:20:50;97358.80;;;14.56;100.00
58223;BME280;44020;50.890;15.796;2023-07-31T02:23:19;97355.04;;;14.54;99.99
58223;BME280;44020;50.890;15.796;2023-07-31T02:25:47;97353.50;;;14.53;99.96
58223;BME280;44020;50.890;15.796;2023-07-31T02:28:14;97352.04;;;14.51;99.83
58223;BME280;44020;50.890;15.796;2023-07-31T02:30:44;97357.02;;;14.48;99.78
58223;BME280;44020;50.890;15.796;2023-07-31T02:33:14;97356.13;;;14.46;99.80
58223;BME280;44020;50.890;15.796;2023-07-31T02:35:42;97355.59;;;14.44;99.75
58223;BME280;44020;50.890;15.796;2023-07-31T02:38:10;97356.78;;;14.41;99.75
58223;BME280;44020;50.890;15.796;2023-07-31T02:40:39;97354.80;;;14.39;99.86
58223;BME280;44020;50.890;15.796;2023-07-31T02:43:08;97352.60;;;14.35;99.75
58223;BME280;44020;50.890;15.796;2023-07-31T02:45:36;97353.73;;;14.33;99.69
58223;BME280;44020;50.890;15.796;2023-07-31T02:48:04;97347.02;;;14.30;99.84
58223;BME280;44020;50.890;15.796;2023-07-31T02:50:32;97353.27;;;14.30;99.79
58223;BME280;44020;50.890;15.796;2023-07-31T02:53:00;97353.27;;;14.28;99.81
58223;BME280;44020;50.890;15.796;2023-07-31T02:55:27;97347.88;;;14.24;99.85
58223;BME280;44020;50.890;15.796;2023-07-31T02:57:55;97346.07;;;14.23;99.89
58223;BME280;44020;50.890;15.796;2023-07-31T03:00:22;97342.80;;;14.21;99.88
58223;BME280;44020;50.890;15.796;2023-07-31T03:02:50;97343.95;;;14.21;99.87
58223;BME280;44020;50.890;15.796;2023-07-31T03:05:17;97344.36;;;14.18;99.96
58223;BME280;44020;50.890;15.796;2023-07-31T03:07:44;97349.89;;;14.18;100.00
58223;BME280;44020;50.890;15.796;2023-07-31T03:10:12;97349.35;;;14.18;100.00
58223;BME280;44020;50.890;15.796;2023-07-31T03:12:40;97349.36;;;14.16;100.00
58223;BME280;44020;50.890;15.796;2023-07-31T03:15:08;97349.08;;;14.15;100.00
58223;BME280;44020;50.890;15.796;2023-07-31T03:17:35;97349.04;;;14.15;100.00
58223;BME280;44020;50.890;15.796;2023-07-31T03:20:04;97351.59;;;14.17;100.00
58223;BME280;44020;50.890;15.796;2023-07-31T03:22:31;97347.41;;;14.18;100.00
58223;BME280;44020;50.890;15.796;2023-07-31T03:24:59;97347.58;;;14.18;100.00
58223;BME280;44020;50.890;15.796;2023-07-31T03:27:26;97344.46;;;14.19;100.00
58223;BME280;44020;50.890;15.796;2023-07-31T03:29:54;97343.66;;;14.20;100.00
58223;BME280;44020;50.890;15.796;2023-07-31T03:32:21;97344.97;;;14.19;100.00
58223;BME280;44020;50.890;15.796;2023-07-31T03:34:49;97346.40;;;14.17;100.00
58223;BME280;44020;50.890;15.796;2023-07-31T03:37:16;97343.35;;;14.15;100.00
58223;BME280;44020;50.890;15.796;2023-07-31T03:39:44;97345.55;;;14.15;100.00
58223;BME280;44020;50.890;15.796;2023-07-31T03:42:12;97343.20;;;14.13;100.00
58223;BME280;44020;50.890;15.796;2023-07-31T03:44:39;97342.90;;;14.12;100.00
58223;BME280;44020;50.890;15.796;2023-07-31T03:47:07;97342.29;;;14.11;100.00
58223;BME280;44020;50.890;15.796;2023-07-31T03:49:34;97341.38;;;14.11;100.00
58223;BME280;44020;50.890;15.796;2023-07-31T03:52:02;97342.92;;;14.12;100.00
58223;BME280;44020;50.890;15.796;2023-07-31T03:54:30;97340.70;;;14.13;100.00
58223;BME280;44020;50.890;15.796;2023-07-31T03:56:58;97339.27;;;14.15;100.00
58223;BME280;44020;50.890;15.796;2023-07-31T03:59:25;97341.77;;;14.17;100.00
58223;BME280;44020;50.890;15.796;2023-07-31T04:01:52;97340.92;;;14.16;100.00
58223;BME280;44020;50.890;15.796;2023-07-31T04:04:20;97337.51;;;14.17;100.00
58223;BME280;44020;50.890;15.796;2023-07-31T04:06:47;97338.33;;;14.18;100.00
58223;BME280;44020;50.890;15.796;2023-07-31T04:09:15;97330.86;;;14.19;100.00
58223;BME280;44020;50.890;15.796;2023-07-31T04:11:42;97326.26;;;14.19;100.00
58223;BME280;44020;50.890;15.796;2023-07-31T04:14:10;97322.96;;;14.20;100.00
58223;BME280;44020;50.890;15.796;2023-07-31T04:16:38;97323.72;;;14.21;100.00
58223;BME280;44020;50.890;15.796;2023-07-31T04:19:05;97325.27;;;14.22;100.00
58223;BME280;44020;50.890;15.796;2023-07-31T04:21:33;97325.02;;;14.23;100.00
58223;BME280;44020;50.890;15.796;2023-07-31T04:24:01;97325.70;;;14.25;100.00
58223;BME280;44020;50.890;15.796;2023-07-31T04:26:29;97327.29;;;14.25;100.00
58223;BME280;44020;50.890;15.796;2023-07-31T04:28:56;97324.42;;;14.27;100.00
58223;BME280;44020;50.890;15.796;2023-07-31T04:31:24;97325.56;;;14.28;100.00
58223;BME280;44020;50.890;15.796;2023-07-31T04:33:51;97328.29;;;14.29;100.00
58223;BME280;44020;50.890;15.796;2023-07-31T04:36:19;97329.23;;;14.31;100.00
58223;BME280;44020;50.890;15.796;2023-07-31T04:38:47;97324.63;;;14.32;100.00
58223;BME280;44020;50.890;15.796;2023-07-31T04:41:14;97322.27;;;14.33;100.00
58223;BME280;44020;50.890;15.796;2023-07-31T04:43:41;97317.86;;;14.34;100.00
58223;BME280;44020;50.890;15.796;2023-07-31T04:46:08;97327.09;;;14.35;100.00
58223;BME280;44020;50.890;15.796;2023-07-31T04:48:36;97329.57;;;14.35;100.00
58223;BME280;44020;50.890;15.796;2023-07-31T04:51:03;97330.48;;;14.37;100.00
58223;BME280;44020;50.890;15.796;2023-07-31T04:53:31;97331.73;;;14.38;100.00
58223;BME280;44020;50.890;15.796;2023-07-31T04:55:58;97327.30;;;14.38;100.00
58223;BME280;44020;50.890;15.796;2023-07-31T04:58:26;97321.27;;;14.38;100.00
58223;BME280;44020;50.890;15.796;2023-07-31T05:00:53;97314.95;;;14.39;100.00
58223;BME280;44020;50.890;15.796;2023-07-31T05:03:21;97311.08;;;14.40;100.00
58223;BME280;44020;50.890;15.796;2023-07-31T05:05:49;97315.51;;;14.42;100.00
58223;BME280;44020;50.890;15.796;2023-07-31T05:08:17;97312.99;;;14.44;100.00
58223;BME280;44020;50.890;15.796;2023-07-31T05:10:47;97314.58;;;14.47;100.00
58223;BME280;44020;50.890;15.796;2023-07-31T05:13:15;97317.91;;;14.49;100.00
58223;BME280;44020;50.890;15.796;2023-07-31T05:15:43;97314.63;;;14.52;100.00
58223;BME280;44020;50.890;15.796;2023-07-31T05:18:10;97311.72;;;14.54;100.00
58223;BME280;44020;50.890;15.796;2023-07-31T05:20:38;97312.38;;;14.57;100.00
58223;BME280;44020;50.890;15.796;2023-07-31T05:23:06;97312.86;;;14.58;100.00
58223;BME280;44020;50.890;15.796;2023-07-31T05:25:33;97310.65;;;14.60;100.00
58223;BME280;44020;50.890;15.796;2023-07-31T05:28:01;97306.41;;;14.64;100.00
58223;BME280;44020;50.890;15.796;2023-07-31T05:30:30;97301.89;;;14.66;100.00
58223;BME280;44020;50.890;15.796;2023-07-31T05:32:58;97302.06;;;14.70;100.00
58223;BME280;44020;50.890;15.796;2023-07-31T05:35:25;97301.29;;;14.74;100.00
58223;BME280;44020;50.890;15.796;2023-07-31T05:37:53;97300.60;;;14.78;100.00
58223;BME280;44020;50.890;15.796;2023-07-31T05:40:20;97296.40;;;14.81;100.00
58223;BME280;44020;50.890;15.796;2023-07-31T05:42:47;97300.92;;;14.84;100.00
58223;BME280;44020;50.890;15.796;2023-07-31T05:45:14;97291.89;;;14.87;100.00
58223;BME280;44020;50.890;15.796;2023-07-31T05:47:41;97288.39;;;14.90;100.00
58223;BME280;44020;50.890;15.796;2023-07-31T05:50:09;97291.59;;;14.92;100.00
58223;BME280;44020;50.890;15.796;2023-07-31T05:52:36;97288.81;;;14.95;100.00
58223;BME280;44020;50.890;15.796;2023-07-31T05:55:03;97284.27;;;14.98;100.00
58223;BME280;44020;50.890;15.796;2023-07-31T05:57:31;97287.11;;;15.00;100.00
58223;BME280;44020;50.890;15.796;2023-07-31T05:59:58;97287.86;;;15.03;100.00
58223;BME280;44020;50.890;15.796;2023-07-31T06:02:25;97290.44;;;15.08;100.00
58223;BME280;44020;50.890;15.796;2023-07-31T06:04:52;97296.25;;;15.13;100.00
58223;BME280;44020;50.890;15.796;2023-07-31T06:07:20;97300.30;;;15.17;100.00
58223;BME280;44020;50.890;15.796;2023-07-31T06:09:47;97297.91;;;15.22;100.00
58223;BME280;44020;50.890;15.796;2023-07-31T06:12:14;97294.79;;;15.26;100.00
58223;BME280;44020;50.890;15.796;2023-07-31T06:14:44;97290.73;;;15.33;100.00
58223;BME280;44020;50.890;15.796;2023-07-31T06:17:11;97297.84;;;15.39;100.00
58223;BME280;44020;50.890;15.796;2023-07-31T06:19:39;97294.76;;;15.45;100.00
58223;BME280;44020;50.890;15.796;2023-07-31T06:22:06;97293.17;;;15.50;100.00
58223;BME280;44020;50.890;15.796;2023-07-31T06:24:33;97294.73;;;15.56;100.00
58223;BME280;44020;50.890;15.796;2023-07-31T06:27:00;97294.92;;;15.62;100.00
58223;BME280;44020;50.890;15.796;2023-07-31T06:29:30;97291.58;;;15.69;100.00
58223;BME280;44020;50.890;15.796;2023-07-31T06:31:57;97290.33;;;15.76;100.00
58223;BME280;44020;50.890;15.796;2023-07-31T06:34:24;97286.92;;;15.84;100.00
58223;BME280;44020;50.890;15.796;2023-07-31T06:36:52;97281.55;;;15.93;100.00
58223;BME280;44020;50.890;15.796;2023-07-31T06:39:19;97280.09;;;16.02;100.00
58223;BME280;44020;50.890;15.796;2023-07-31T06:41:47;97274.28;;;16.10;100.00
58223;BME280;44020;50.890;15.796;2023-07-31T06:44:14;97277.67;;;16.17;100.00
58223;BME280;44020;50.890;15.796;2023-07-31T06:46:42;97277.06;;;16.23;100.00
58223;BME280;44020;50.890;15.796;2023-07-31T06:49:10;97276.24;;;16.28;100.00
58223;BME280;44020;50.890;15.796;2023-07-31T06:51:37;97273.69;;;16.32;100.00
58223;BME280;44020;50.890;15.796;2023-07-31T06:54:05;97271.81;;;16.36;100.00
58223;BME280;44020;50.890;15.796;2023-07-31T06:56:32;97271.41;;;16.40;100.00
58223;BME280;44020;50.890;15.796;2023-07-31T06:59:00;97273.18;;;16.44;100.00
58223;BME280;44020;50.890;15.796;2023-07-31T07:01:28;97276.33;;;16.47;100.00
58223;BME280;44020;50.890;15.796;2023-07-31T07:03:55;97277.52;;;16.49;100.00
58223;BME280;44020;50.890;15.796;2023-07-31T07:06:22;97281.34;;;16.50;100.00
58223;BME280;44020;50.890;15.796;2023-07-31T07:08:49;97287.02;;;16.53;100.00
58223;BME280;44020;50.890;15.796;2023-07-31T07:11:17;97284.49;;;16.55;100.00
58223;BME280;44020;50.890;15.796;2023-07-31T07:13:44;97286.47;;;16.56;100.00
58223;BME280;44020;50.890;15.796;2023-07-31T07:16:11;97278.78;;;16.58;100.00
58223;BME280;44020;50.890;15.796;2023-07-31T07:18:38;97280.79;;;16.61;100.00
58223;BME280;44020;50.890;15.796;2023-07-31T07:21:05;97275.88;;;16.63;100.00
58223;BME280;44020;50.890;15.796;2023-07-31T07:23:33;97277.07;;;16.68;100.00
58223;BME280;44020;50.890;15.796;2023-07-31T07:26:00;97272.58;;;16.71;100.00
58223;BME280;44020;50.890;15.796;2023-07-31T07:28:57;97278.17;;;16.74;100.00
58223;BME280;44020;50.890;15.796;2023-07-31T07:31:29;97282.35;;;16.77;100.00
58223;BME280;44020;50.890;15.796;2023-07-31T07:33:57;97286.30;;;16.79;99.37
58223;BME280;44020;50.890;15.796;2023-07-31T07:36:24;97284.36;;;16.81;98.55
58223;BME280;44020;50.890;15.796;2023-07-31T07:38:51;97286.12;;;16.81;97.55
58223;BME280;44020;50.890;15.796;2023-07-31T07:41:18;97286.23;;;16.82;96.27
58223;BME280;44020;50.890;15.796;2023-07-31T07:43:46;97286.96;;;16.83;95.80
58223;BME280;44020;50.890;15.796;2023-07-31T07:46:13;97286.52;;;16.86;95.28
58223;BME280;44020;50.890;15.796;2023-07-31T07:48:40;97284.31;;;16.88;94.70
58223;BME280;44020;50.890;15.796;2023-07-31T07:51:07;97290.39;;;16.92;94.39
58223;BME280;44020;50.890;15.796;2023-07-31T07:53:34;97283.71;;;16.96;93.96
58223;BME280;44020;50.890;15.796;2023-07-31T07:56:02;97276.91;;;17.01;93.77
58223;BME280;44020;50.890;15.796;2023-07-31T07:58:29;97279.20;;;17.04;93.36
58223;BME280;44020;50.890;15.796;2023-07-31T08:00:56;97281.98;;;17.09;93.17
58223;BME280;44020;50.890;15.796;2023-07-31T08:03:23;97280.87;;;17.13;92.72
58223;BME280;44020;50.890;15.796;2023-07-31T08:05:51;97276.58;;;17.16;92.57
58223;BME280;44020;50.890;15.796;2023-07-31T08:08:18;97270.36;;;17.19;92.38
58223;BME280;44020;50.890;15.796;2023-07-31T08:10:47;97271.60;;;17.22;92.07
58223;BME280;44020;50.890;15.796;2023-07-31T08:13:14;97269.02;;;17.25;92.26
58223;BME280;44020;50.890;15.796;2023-07-31T08:15:42;97269.36;;;17.27;91.91
58223;BME280;44020;50.890;15.796;2023-07-31T08:18:10;97274.52;;;17.29;92.07
58223;BME280;44020;50.890;15.796;2023-07-31T08:20:38;97276.02;;;17.34;91.96
58223;BME280;44020;50.890;15.796;2023-07-31T08:23:06;97279.36;;;17.36;91.89
58223;BME280;44020;50.890;15.796;2023-07-31T08:25:37;97276.36;;;17.40;91.83
58223;BME280;44020;50.890;15.796;2023-07-31T08:28:05;97276.52;;;17.44;91.37
58223;BME280;44020;50.890;15.796;2023-07-31T08:30:33;97276.84;;;17.48;91.03
58223;BME280;44020;50.890;15.796;2023-07-31T08:33:00;97271.70;;;17.53;90.69
58223;BME280;44020;50.890;15.796;2023-07-31T08:35:28;97280.06;;;17.55;89.94
58223;BME280;44020;50.890;15.796;2023-07-31T08:37:56;97285.11;;;17.55;89.12
58223;BME280;44020;50.890;15.796;2023-07-31T08:40:24;97287.85;;;17.56;89.37
58223;BME280;44020;50.890;15.796;2023-07-31T08:42:53;97287.44;;;17.58;89.15
58223;BME280;44020;50.890;15.796;2023-07-31T08:45:21;97290.96;;;17.60;89.19
58223;BME280;44020;50.890;15.796;2023-07-31T08:47:50;97294.73;;;17.64;89.31
58223;BME280;44020;50.890;15.796;2023-07-31T08:50:19;97290.23;;;17.67;88.69
58223;BME280;44020;50.890;15.796;2023-07-31T08:52:49;97289.48;;;17.68;88.66
58223;BME280;44020;50.890;15.796;2023-07-31T08:55:16;97290.06;;;17.69;88.66
58223;BME280;44020;50.890;15.796;2023-07-31T08:57:44;97288.22;;;17.72;88.49
58223;BME280;44020;50.890;15.796;2023-07-31T09:00:12;97285.08;;;17.74;88.27
58223;BME280;44020;50.890;15.796;2023-07-31T09:02:48;97287.34;;;17.75;87.62
58223;BME280;44020;50.890;15.796;2023-07-31T09:05:19;97285.15;;;17.73;87.54
58223;BME280;44020;50.890;15.796;2023-07-31T09:07:49;97286.14;;;17.76;87.41
58223;BME280;44020;50.890;15.796;2023-07-31T09:10:17;97283.61;;;17.77;87.48
58223;BME280;44020;50.890;15.796;2023-07-31T09:12:44;97285.67;;;17.80;87.15
58223;BME280;44020;50.890;15.796;2023-07-31T09:15:12;97278.91;;;17.79;86.28
58223;BME280;44020;50.890;15.796;2023-07-31T09:17:39;97279.32;;;17.81;86.70
58223;BME280;44020;50.890;15.796;2023-07-31T09:20:16;97278.14;;;17.83;86.13
58223;BME280;44020;50.890;15.796;2023-07-31T09:22:44;97279.15;;;17.83;86.14
58223;BME280;44020;50.890;15.796;2023-07-31T09:25:19;97277.53;;;17.84;86.20
58223;BME280;44020;50.890;15.796;2023-07-31T09:30:18;97288.88;;;17.89;85.56
58223;BME280;44020;50.890;15.796;2023-07-31T09:32:48;97289.54;;;17.88;85.64
58223;BME280;44020;50.890;15.796;2023-07-31T09:35:22;97291.73;;;17.91;85.75
58223;BME280;44020;50.890;15.796;2023-07-31T09:37:51;97287.47;;;17.91;85.54
58223;BME280;44020;50.890;15.796;2023-07-31T09:40:29;97284.27;;;17.94;85.83
58223;BME280;44020;50.890;15.796;2023-07-31T09:43:04;97284.39;;;18.03;85.62
58223;BME280;44020;50.890;15.796;2023-07-31T09:45:35;97278.90;;;18.06;85.32
58223;BME280;44020;50.890;15.796;2023-07-31T09:48:15;97275.14;;;18.11;85.48
58223;BME280;44020;50.890;15.796;2023-07-31T09:50:45;97276.33;;;18.19;85.33
58223;BME280;44020;50.890;15.796;2023-07-31T09:53:12;97275.26;;;18.25;84.99
58223;BME280;44020;50.890;15.796;2023-07-31T09:55:41;97271.41;;;18.32;84.91
58223;BME280;44020;50.890;15.796;2023-07-31T09:58:09;97271.19;;;18.43;84.97
58223;BME280;44020;50.890;15.796;2023-07-31T10:00:37;97269.67;;;18.52;84.47
58223;BME280;44020;50.890;15.796;2023-07-31T10:03:06;97271.29;;;18.59;84.43
58223;BME280;44020;50.890;15.796;2023-07-31T10:05:35;97269.80;;;18.64;84.09
58223;BME280;44020;50.890;15.796;2023-07-31T10:08:03;97268.91;;;18.70;83.84
58223;BME280;44020;50.890;15.796;2023-07-31T10:10:31;97270.48;;;18.74;83.49
58223;BME280;44020;50.890;15.796;2023-07-31T10:13:00;97261.83;;;18.78;83.38
58223;BME280;44020;50.890;15.796;2023-07-31T10:15:28;97259.87;;;18.84;83.22
58223;BME280;44020;50.890;15.796;2023-07-31T10:17:58;97254.90;;;18.86;82.44
58223;BME280;44020;50.890;15.796;2023-07-31T10:20:26;97246.03;;;18.87;82.15
58223;BME280;44020;50.890;15.796;2023-07-31T10:22:57;97243.05;;;18.94;82.37
58223;BME280;44020;50.890;15.796;2023-07-31T10:25:26;97238.94;;;19.04;82.54
58223;BME280;44020;50.890;15.796;2023-07-31T10:27:54;97239.35;;;19.11;82.31
58223;BME280;44020;50.890;15.796;2023-07-31T10:30:25;97231.19;;;19.20;82.07
58223;BME280;44020;50.890;15.796;2023-07-31T10:32:53;97228.45;;;19.23;81.33
58223;BME280;44020;50.890;15.796;2023-07-31T10:35:21;97230.33;;;19.25;81.04
58223;BME280;44020;50.890;15.796;2023-07-31T10:37:51;97230.02;;;19.28;80.61
58223;BME280;44020;50.890;15.796;2023-07-31T10:40:24;97229.05;;;19.34;80.68
58223;BME280;44020;50.890;15.796;2023-07-31T10:42:53;97226.00;;;19.43;81.12
58223;BME280;44020;50.890;15.796;2023-07-31T10:45:33;97217.68;;;19.54;81.50
58223;BME280;44020;50.890;15.796;2023-07-31T10:48:05;97220.13;;;19.64;80.84
58223;BME280;44020;50.890;15.796;2023-07-31T10:50:37;97218.19;;;19.69;79.98
58223;BME280;44020;50.890;15.796;2023-07-31T10:53:04;97214.81;;;19.68;79.32
58223;BME280;44020;50.890;15.796;2023-07-31T10:55:43;97205.67;;;19.72;80.31
58223;BME280;44020;50.890;15.796;2023-07-31T10:58:13;97196.70;;;19.82;80.05
58223;BME280;44020;50.890;15.796;2023-07-31T11:00:42;97191.30;;;19.89;79.29
58223;BME280;44020;50.890;15.796;2023-07-31T11:03:15;97197.10;;;20.03;79.41
58223;BME280;44020;50.890;15.796;2023-07-31T11:08:22;97188.80;;;20.28;79.10
58223;BME280;44020;50.890;15.796;2023-07-31T11:11:06;97191.24;;;20.45;78.87
58223;BME280;44020;50.890;15.796;2023-07-31T11:13:45;97188.85;;;20.62;78.11
58223;BME280;44020;50.890;15.796;2023-07-31T11:16:17;97186.59;;;20.80;77.62
58223;BME280;44020;50.890;15.796;2023-07-31T11:18:46;97190.02;;;20.94;77.50
58223;BME280;44020;50.890;15.796;2023-07-31T11:21:15;97192.65;;;21.07;76.76
58223;BME280;44020;50.890;15.796;2023-07-31T11:23:47;97192.30;;;21.12;76.04
58223;BME280;44020;50.890;15.796;2023-07-31T11:26:17;97190.48;;;21.22;74.67
58223;BME280;44020;50.890;15.796;2023-07-31T11:28:49;97186.66;;;21.32;73.94
58223;BME280;44020;50.890;15.796;2023-07-31T11:31:17;97186.66;;;21.42;73.10
58223;BME280;44020;50.890;15.796;2023-07-31T11:33:44;97181.39;;;21.49;72.97
58223;BME280;44020;50.890;15.796;2023-07-31T11:36:18;97184.25;;;21.61;72.08
58223;BME280;44020;50.890;15.796;2023-07-31T11:38:46;97180.81;;;21.64;71.28
58223;BME280;44020;50.890;15.796;2023-07-31T11:41:15;97181.42;;;21.70;71.52
58223;BME280;44020;50.890;15.796;2023-07-31T11:43:43;97185.13;;;21.76;71.25
58223;BME280;44020;50.890;15.796;2023-07-31T11:46:13;97178.14;;;21.83;71.53
58223;BME280;44020;50.890;15.796;2023-07-31T11:48:41;97179.98;;;21.94;71.84
58223;BME280;44020;50.890;15.796;2023-07-31T11:51:10;97188.73;;;21.98;69.58
58223;BME280;44020;50.890;15.796;2023-07-31T11:53:45;97188.58;;;21.97;69.11
58223;BME280;44020;50.890;15.796;2023-07-31T11:56:17;97192.02;;;21.93;67.53
58223;BME280;44020;50.890;15.796;2023-07-31T11:58:51;97194.58;;;21.93;67.92
58223;BME280;44020;50.890;15.796;2023-07-31T12:01:21;97195.84;;;22.02;68.03
58223;BME280;44020;50.890;15.796;2023-07-31T12:03:51;97189.42;;;22.07;67.85
58223;BME280;44020;50.890;15.796;2023-07-31T12:06:19;97179.20;;;22.08;65.95
58223;BME280;44020;50.890;15.796;2023-07-31T12:08:48;97175.88;;;22.05;67.34
58223;BME280;44020;50.890;15.796;2023-07-31T12:11:16;97173.92;;;22.12;67.41
58223;BME280;44020;50.890;15.796;2023-07-31T12:13:45;97169.77;;;22.24;67.68
58223;BME280;44020;50.890;15.796;2023-07-31T12:16:12;97167.48;;;22.32;67.99
58223;BME280;44020;50.890;15.796;2023-07-31T12:18:39;97157.54;;;22.42;67.06
58223;BME280;44020;50.890;15.796;2023-07-31T12:21:08;97159.49;;;22.48;65.97
58223;BME280;44020;50.890;15.796;2023-07-31T12:23:38;97155.86;;;22.42;65.76
58223;BME280;44020;50.890;15.796;2023-07-31T12:26:07;97156.98;;;22.47;65.02
58223;BME280;44020;50.890;15.796;2023-07-31T12:28:45;97155.64;;;22.45;65.19
58223;BME280;44020;50.890;15.796;2023-07-31T12:31:18;97153.54;;;22.43;64.73
58223;BME280;44020;50.890;15.796;2023-07-31T12:33:47;97157.92;;;22.44;65.37
58223;BME280;44020;50.890;15.796;2023-07-31T12:36:22;97147.34;;;22.42;64.71
58223;BME280;44020;50.890;15.796;2023-07-31T12:38:50;97146.69;;;22.39;64.63
58223;BME280;44020;50.890;15.796;2023-07-31T12:41:18;97148.31;;;22.28;64.00
58223;BME280;44020;50.890;15.796;2023-07-31T12:43:45;97149.27;;;22.13;63.80
58223;BME280;44020;50.890;15.796;2023-07-31T12:46:13;97141.89;;;22.05;64.06
58223;BME280;44020;50.890;15.796;2023-07-31T12:48:41;97140.08;;;22.02;63.80
58223;BME280;44020;50.890;15.796;2023-07-31T12:51:08;97130.66;;;22.02;63.54
58223;BME280;44020;50.890;15.796;2023-07-31T12:53:48;97130.59;;;21.98;62.89
58223;BME280;44020;50.890;15.796;2023-07-31T12:56:15;97126.24;;;22.01;63.12
58223;BME280;44020;50.890;15.796;2023-07-31T12:58:44;97131.10;;;22.03;63.12
58223;BME280;44020;50.890;15.796;2023-07-31T13:01:11;97125.28;;;22.06;63.21